Time;durP1;ratioP1;P1;durP2;ratioP2;P2;SDS_P1;SDS_P2;PMS_P1;PMS_P2;Temp;Humidity;BMP_temperature;BMP_pressure;BME280_temperature;BME280_humidity;BME280_pressure;Samples;Min_cycle;Max_cycle;Signal;HPM_P1;HPM_P2
2022/08/01 00:02:05;;;;;;;0.80;0.52;;;12.00;55.30;;;;;;5070468;28;20577;-37
2022/08/01 00:04:37;;;;;;;2.45;0.52;;;12.00;55.60;;;;;;5073998;28;20210;-38
2022/08/01 00:07:08;;;;;;;0.93;0.65;;;12.00;55.30;;;;;;5078887;28;20772;-38
2022/08/01 00:09:39;;;;;;;1.23;0.47;;;12.10;55.40;;;;;;5074205;28;20223;-37
2022/08/01 00:12:10;;;;;;;0.40;0.40;;;12.10;55.50;;;;;;5083143;28;20187;-38
2022/08/01 00:14:41;;;;;;;1.77;0.60;;;12.10;55.70;;;;;;5072731;28;20215;-40
2022/08/01 00:17:11;;;;;;;0.73;0.40;;;12.10;55.70;;;;;;5072176;28;20191;-38
2022/08/01 00:19:44;;;;;;;0.75;0.50;;;12.10;55.70;;;;;;5059491;28;20635;-37
2022/08/01 00:22:14;;;;;;;0.55;0.55;;;12.20;55.80;;;;;;5076316;28;20198;-38
2022/08/01 00:24:45;;;;;;;1.38;0.60;;;12.20;55.90;;;;;;5072048;28;20804;-37
2022/08/01 00:27:16;;;;;;;0.50;0.32;;;12.20;55.90;;;;;;5071515;28;20214;-39
2022/08/01 00:29:46;;;;;;;0.70;0.50;;;12.20;55.90;;;;;;5071794;28;20233;-40
2022/08/01 00:32:17;;;;;;;0.75;0.50;;;12.30;56.10;;;;;;5071767;28;20195;-39
2022/08/01 00:34:50;;;;;;;0.65;0.50;;;12.30;56.40;;;;;;5071547;28;20211;-50
2022/08/01 00:37:20;;;;;;;0.63;0.50;;;12.30;56.70;;;;;;5071354;28;20191;-37
2022/08/01 00:39:51;;;;;;;0.68;0.40;;;12.30;56.80;;;;;;5070817;28;20210;-37
2022/08/01 00:42:22;;;;;;;1.00;0.40;;;12.40;56.80;;;;;;5071477;28;20191;-50
2022/08/01 00:44:52;;;;;;;0.82;0.40;;;12.40;56.70;;;;;;5070788;28;20219;-38
2022/08/01 00:47:23;;;;;;;0.93;0.38;;;12.50;56.80;;;;;;5071845;28;20202;-38
2022/08/01 00:49:56;;;;;;;0.60;0.45;;;12.40;56.70;;;;;;5071613;28;20226;-46
2022/08/01 00:52:26;;;;;;;0.82;0.50;;;12.50;56.70;;;;;;5071202;28;20202;-38
2022/08/01 00:54:57;;;;;;;0.73;0.52;;;12.50;56.70;;;;;;5067480;28;20215;-38
2022/08/01 00:57:28;;;;;;;0.68;0.47;;;12.50;56.60;;;;;;5071249;28;20201;-38
2022/08/01 00:59:59;;;;;;;0.57;0.40;;;12.50;56.60;;;;;;5071851;28;20662;-38
2022/08/01 01:02:29;;;;;;;0.63;0.40;;;12.60;56.60;;;;;;5070528;28;20198;-38
2022/08/01 01:05:02;;;;;;;1.45;0.52;;;12.60;56.70;;;;;;5071347;28;20682;-38
2022/08/01 01:07:39;;;;;;;1.10;0.40;;;12.60;56.80;;;;;;5071593;28;20201;-40
2022/08/01 01:10:16;;;;;;;0.60;0.52;;;12.60;56.80;;;;;;5071871;28;20240;-42
2022/08/01 01:12:51;;;;;;;0.50;0.50;;;12.60;56.80;;;;;;5070598;28;20747;-37
2022/08/01 01:15:25;;;;;;;0.85;0.50;;;12.70;56.80;;;;;;5071255;28;20214;-37
2022/08/01 01:17:59;;;;;;;0.60;0.43;;;12.70;56.70;;;;;;5070781;28;20194;-43
2022/08/01 01:20:36;;;;;;;0.75;0.52;;;12.70;56.80;;;;;;5071001;28;20191;-38
2022/08/01 01:23:34;;;;;;;0.60;0.40;;;12.80;56.90;;;;;;5070686;28;20273;-38
2022/08/01 01:26:31;;;;;;;3.90;0.50;;;12.80;56.80;;;;;;5070761;28;20195;-38
2022/08/01 01:29:11;;;;;;;2.42;0.65;;;12.80;56.30;;;;;;5070416;28;20233;-38
2022/08/01 01:31:47;;;;;;;1.23;0.47;;;12.90;56.10;;;;;;5070478;28;20191;-38
2022/08/01 01:34:21;;;;;;;1.23;0.60;;;12.90;56.10;;;;;;5070835;28;20214;-40
2022/08/01 01:36:54;;;;;;;0.68;0.50;;;12.90;55.90;;;;;;5071172;28;20273;-39
2022/08/01 01:39:28;;;;;;;1.70;0.65;;;13.00;55.70;;;;;;5070836;28;20574;-46
2022/08/01 01:42:01;;;;;;;0.85;0.73;;;13.10;55.30;;;;;;5071353;28;20186;-38
2022/08/01 01:44:34;;;;;;;1.40;0.77;;;13.10;55.10;;;;;;5070988;28;20223;-38
2022/08/01 01:47:06;;;;;;;1.45;0.70;;;13.20;55.50;;;;;;5071430;28;20669;-38
2022/08/01 01:49:37;;;;;;;1.25;0.90;;;13.30;54.70;;;;;;5070455;28;20234;-42
2022/08/01 01:52:09;;;;;;;0.68;0.52;;;13.30;54.50;;;;;;5070505;28;20289;-41
2022/08/01 01:54:43;;;;;;;3.08;0.55;;;13.40;54.30;;;;;;5070094;28;20218;-38
2022/08/01 01:57:17;;;;;;;0.88;0.57;;;13.50;54.10;;;;;;5070476;28;20564;-38
2022/08/01 01:59:52;;;;;;;0.75;0.50;;;13.50;53.90;;;;;;5071092;28;20198;-38
2022/08/01 02:02:24;;;;;;;0.73;0.60;;;13.60;53.80;;;;;;5069822;28;20205;-41
2022/08/01 02:04:58;;;;;;;0.50;0.30;;;13.60;53.60;;;;;;5069879;28;20207;-38
2022/08/01 02:07:29;;;;;;;0.98;0.50;;;13.70;53.50;;;;;;5070698;28;20209;-42
2022/08/01 02:10:02;;;;;;;1.08;0.65;;;13.70;53.40;;;;;;5070368;28;20226;-42
2022/08/01 02:12:37;;;;;;;0.75;0.50;;;13.80;53.20;;;;;;5069965;28;20191;-38
2022/08/01 02:15:12;;;;;;;1.35;0.60;;;13.90;53.00;;;;;;5070601;28;20218;-38
2022/08/01 02:17:48;;;;;;;0.88;0.60;;;13.90;52.80;;;;;;5050393;28;20235;-38
2022/08/01 02:20:18;;;;;;;0.47;0.40;;;14.00;52.60;;;;;;5051207;28;20234;-38
2022/08/01 02:22:53;;;;;;;1.15;0.60;;;14.00;52.50;;;;;;5049955;28;20210;-38
2022/08/01 02:25:27;;;;;;;1.05;0.70;;;14.10;52.30;;;;;;5051440;28;20634;-38
2022/08/01 02:28:05;;;;;;;0.40;0.40;;;14.10;52.20;;;;;;5071015;28;20666;-38
2022/08/01 02:30:39;;;;;;;1.08;0.50;;;14.20;52.00;;;;;;5070457;28;20226;-37
2022/08/01 02:33:14;;;;;;;0.90;0.50;;;14.20;51.90;;;;;;5070613;28;20214;-38
2022/08/01 02:35:46;;;;;;;1.05;0.60;;;14.30;52.00;;;;;;5070479;28;20191;-45
2022/08/01 02:38:19;;;;;;;0.98;0.60;;;14.30;52.30;;;;;;5069911;28;20559;-37
2022/08/01 02:40:52;;;;;;;1.05;0.60;;;14.40;52.50;;;;;;5069862;28;20202;-38
2022/08/01 02:43:25;;;;;;;1.33;0.60;;;14.40;52.20;;;;;;5069501;28;20187;-37
2022/08/01 02:46:02;;;;;;;0.70;0.52;;;14.50;52.10;;;;;;5054702;28;20187;-37
2022/08/01 02:48:36;;;;;;;0.93;0.60;;;14.60;52.00;;;;;;5070752;28;20194;-46
2022/08/01 02:51:08;;;;;;;0.55;0.52;;;14.60;52.00;;;;;;5070192;28;20233;-40
2022/08/01 02:53:42;;;;;;;0.52;0.50;;;14.70;51.90;;;;;;5070185;28;20219;-38
2022/08/01 02:56:14;;;;;;;2.03;0.75;;;14.70;51.80;;;;;;5065242;28;20198;-38
2022/08/01 02:58:47;;;;;;;0.90;0.50;;;14.70;51.70;;;;;;5090313;28;20198;-38
2022/08/01 03:01:21;;;;;;;0.40;0.40;;;14.80;51.80;;;;;;5089893;28;20197;-38
2022/08/01 03:03:52;;;;;;;0.50;0.40;;;14.80;51.70;;;;;;5058658;28;20219;-40
2022/08/01 03:06:23;;;;;;;0.73;0.47;;;14.90;51.80;;;;;;5070751;28;20202;-38
2022/08/01 03:08:55;;;;;;;0.65;0.50;;;14.90;51.60;;;;;;5070760;28;20195;-39
2022/08/01 03:11:28;;;;;;;0.45;0.32;;;14.90;51.50;;;;;;5070649;28;20205;-38
2022/08/01 03:14:01;;;;;;;0.75;0.45;;;14.90;51.40;;;;;;5070670;28;20301;-38
2022/08/01 03:16:35;;;;;;;0.95;0.60;;;15.00;51.50;;;;;;5070159;28;20206;-37
2022/08/01 03:19:09;;;;;;;0.60;0.40;;;15.00;51.40;;;;;;5069839;28;20719;-43
2022/08/01 03:21:42;;;;;;;0.40;0.40;;;15.00;51.40;;;;;;5070009;28;20654;-42
2022/08/01 03:24:14;;;;;;;1.25;0.50;;;15.10;51.30;;;;;;5070086;28;20215;-38
2022/08/01 03:26:46;;;;;;;1.08;0.70;;;15.10;51.20;;;;;;5073828;28;20203;-52
2022/08/01 03:29:19;;;;;;;1.45;0.55;;;15.10;51.20;;;;;;5073783;28;20199;-37
2022/08/01 03:31:53;;;;;;;2.35;0.93;;;15.20;51.20;;;;;;5073839;28;20253;-39
2022/08/01 03:34:24;;;;;;;0.90;0.60;;;15.20;51.20;;;;;;5068496;28;20221;-38
2022/08/01 03:36:59;;;;;;;1.00;0.63;;;15.20;51.20;;;;;;5065854;28;20206;-43
2022/08/01 03:39:33;;;;;;;0.95;0.60;;;15.30;51.20;;;;;;5073585;28;20198;-38
2022/08/01 03:42:10;;;;;;;1.55;0.50;;;15.30;51.80;;;;;;5073203;28;20197;-38
2022/08/01 03:44:42;;;;;;;0.95;0.70;;;15.30;51.20;;;;;;5073620;28;20222;-37
2022/08/01 03:47:17;;;;;;;1.65;0.68;;;15.30;51.10;;;;;;5074051;28;20269;-44
2022/08/01 03:49:52;;;;;;;1.35;0.60;;;15.40;51.20;;;;;;5073556;28;20582;-40
2022/08/01 03:52:23;;;;;;;1.20;0.65;;;15.40;51.10;;;;;;5073450;28;20198;-42
2022/08/01 03:54:57;;;;;;;1.75;0.60;;;15.40;51.10;;;;;;5073260;28;20214;-38
2022/08/01 03:57:30;;;;;;;0.80;0.60;;;15.50;51.20;;;;;;5073053;28;20196;-38
2022/08/01 04:00:01;;;;;;;1.10;0.77;;;15.50;51.10;;;;;;5072645;28;20198;-38
2022/08/01 04:02:34;;;;;;;1.10;0.70;;;15.50;51.10;;;;;;5072406;28;20194;-38
2022/08/01 04:05:06;;;;;;;0.98;0.70;;;15.60;51.20;;;;;;5072973;28;20362;-38
2022/08/01 04:07:38;;;;;;;1.95;0.82;;;15.60;51.10;;;;;;5073162;28;20581;-39
2022/08/01 04:10:10;;;;;;;0.77;0.60;;;15.70;51.10;;;;;;5072726;28;20283;-39
2022/08/01 04:12:40;;;;;;;1.73;0.80;;;15.70;51.00;;;;;;5073031;28;20202;-39
2022/08/01 04:15:12;;;;;;;1.65;0.60;;;15.70;50.90;;;;;;5072601;28;20226;-38
2022/08/01 04:17:44;;;;;;;1.17;0.70;;;15.80;50.90;;;;;;5072331;28;20197;-40
2022/08/01 04:20:16;;;;;;;0.50;0.50;;;15.80;50.80;;;;;;5072761;28;20202;-38
2022/08/01 04:22:47;;;;;;;0.57;0.57;;;15.90;50.80;;;;;;5072778;28;20194;-38
2022/08/01 04:25:22;;;;;;;0.60;0.60;;;15.90;50.80;;;;;;5068169;28;20223;-38
2022/08/01 04:27:55;;;;;;;1.77;0.60;;;15.90;50.80;;;;;;5072504;28;20606;-38
2022/08/01 04:30:31;;;;;;;0.95;0.63;;;15.90;50.70;;;;;;5070007;28;20230;-38
2022/08/01 04:33:07;;;;;;;0.98;0.68;;;16.00;50.70;;;;;;5051472;28;20196;-50
2022/08/01 04:35:38;;;;;;;0.93;0.50;;;16.00;50.70;;;;;;5064178;28;20194;-39
2022/08/01 04:38:10;;;;;;;1.10;0.65;;;16.00;50.80;;;;;;5071888;28;20191;-38
2022/08/01 04:40:42;;;;;;;1.65;0.60;;;16.10;50.90;;;;;;5071848;28;20571;-39
2022/08/01 04:43:13;;;;;;;1.38;0.65;;;16.10;51.00;;;;;;5070294;28;20202;-38
2022/08/01 04:45:45;;;;;;;0.88;0.63;;;16.10;51.10;;;;;;5072113;28;20187;-41
2022/08/01 04:48:19;;;;;;;1.40;0.75;;;16.10;51.30;;;;;;5071876;28;20244;-38
2022/08/01 04:50:50;;;;;;;2.95;0.70;;;16.10;51.50;;;;;;5071431;28;20218;-38
2022/08/01 04:53:23;;;;;;;1.48;0.80;;;16.10;51.60;;;;;;5071550;28;20217;-38
2022/08/01 04:55:54;;;;;;;1.17;0.80;;;16.10;51.80;;;;;;5071853;28;20201;-38
2022/08/01 04:58:26;;;;;;;1.42;0.80;;;16.10;51.90;;;;;;5071712;28;20199;-38
2022/08/01 05:00:56;;;;;;;0.95;0.50;;;16.10;52.00;;;;;;5071054;28;20199;-38
2022/08/01 05:03:29;;;;;;;0.77;0.73;;;16.10;52.20;;;;;;5071808;28;20202;-38
2022/08/01 05:06:00;;;;;;;1.23;0.75;;;16.10;52.30;;;;;;5084713;28;20190;-40
2022/08/01 05:08:30;;;;;;;0.90;0.75;;;16.10;52.40;;;;;;5092000;28;20194;-38
2022/08/01 05:11:01;;;;;;;1.98;0.80;;;16.10;52.40;;;;;;5091204;28;20214;-38
2022/08/01 05:13:32;;;;;;;0.90;0.70;;;16.10;52.50;;;;;;5090863;28;20190;-38
2022/08/01 05:16:03;;;;;;;1.40;0.70;;;16.10;52.60;;;;;;5090988;28;20190;-38
2022/08/01 05:18:36;;;;;;;0.73;0.70;;;16.10;52.60;;;;;;5091747;28;20251;-41
2022/08/01 05:21:07;;;;;;;0.98;0.70;;;16.10;52.70;;;;;;5072821;28;20208;-41
2022/08/01 05:23:37;;;;;;;1.00;0.70;;;16.10;52.80;;;;;;5070492;28;20222;-45
2022/08/01 05:26:08;;;;;;;0.60;0.60;;;16.10;52.90;;;;;;5070610;28;20207;-38
2022/08/01 05:28:39;;;;;;;0.98;0.80;;;16.00;52.90;;;;;;5070319;28;20195;-38
2022/08/01 05:31:10;;;;;;;0.70;0.47;;;16.00;52.90;;;;;;5069693;28;20754;-38
2022/08/01 05:33:42;;;;;;;0.60;0.60;;;16.00;52.90;;;;;;5070118;28;20225;-38
2022/08/01 05:36:13;;;;;;;2.17;0.70;;;16.00;53.10;;;;;;5070104;28;20666;-38
2022/08/01 05:38:44;;;;;;;1.08;0.73;;;16.00;53.20;;;;;;5070757;28;20639;-41
2022/08/01 05:41:15;;;;;;;0.93;0.70;;;16.00;53.20;;;;;;5071252;28;20197;-43
2022/08/01 05:43:45;;;;;;;0.90;0.80;;;15.90;53.20;;;;;;5070503;28;20684;-38
2022/08/01 05:46:16;;;;;;;0.75;0.60;;;15.90;53.30;;;;;;5070850;28;20191;-38
2022/08/01 05:48:49;;;;;;;1.10;0.80;;;15.90;53.40;;;;;;5070542;28;20201;-38
2022/08/01 05:51:19;;;;;;;1.80;0.85;;;15.90;53.30;;;;;;5070199;28;20589;-45
2022/08/01 05:53:50;;;;;;;1.08;0.60;;;15.90;53.30;;;;;;5071217;28;20691;-38
2022/08/01 05:56:21;;;;;;;0.85;0.70;;;15.90;53.40;;;;;;5084782;28;20197;-38
2022/08/01 05:58:52;;;;;;;0.75;0.70;;;15.80;53.40;;;;;;5090971;28;20194;-41
2022/08/01 06:01:23;;;;;;;1.92;0.70;;;15.80;53.40;;;;;;5090117;28;20190;-38
2022/08/01 06:03:56;;;;;;;0.52;0.52;;;15.80;53.50;;;;;;5090992;28;20221;-38
2022/08/01 06:06:26;;;;;;;1.05;0.80;;;15.80;53.50;;;;;;5090187;28;20224;-38
2022/08/01 06:08:57;;;;;;;0.75;0.63;;;15.80;53.50;;;;;;5091017;28;20205;-38
2022/08/01 06:11:28;;;;;;;0.90;0.65;;;15.70;53.50;;;;;;5090382;28;20229;-38
2022/08/01 06:13:58;;;;;;;0.80;0.80;;;15.80;53.60;;;;;;5089580;28;20210;-44
2022/08/01 06:16:29;;;;;;;2.95;1.90;;;15.70;53.60;;;;;;5090181;28;20190;-43
2022/08/01 06:19:02;;;;;;;2.30;2.10;;;15.70;51.00;;;;;;5089096;28;20190;-38
2022/08/01 06:21:32;;;;;;;2.08;1.77;;;15.60;49.90;;;;;;5069767;28;20198;-38
2022/08/01 06:24:03;;;;;;;1.90;1.60;;;15.50;50.10;;;;;;5070466;28;20678;-37
2022/08/01 06:26:34;;;;;;;1.58;1.40;;;15.50;50.30;;;;;;5070285;28;20209;-37
2022/08/01 06:29:04;;;;;;;1.20;1.05;;;15.40;51.10;;;;;;5070174;28;20194;-37
2022/08/01 06:31:35;;;;;;;1.75;1.38;;;15.50;51.40;;;;;;5070168;28;20237;-37
2022/08/01 06:34:07;;;;;;;1.73;1.42;;;15.40;51.40;;;;;;5070013;28;20230;-37
2022/08/01 06:36:38;;;;;;;2.05;1.45;;;15.40;51.50;;;;;;5070238;28;20196;-37
2022/08/01 06:39:09;;;;;;;1.48;1.38;;;15.40;52.10;;;;;;5068961;28;20195;-37
2022/08/01 06:41:41;;;;;;;1.40;1.30;;;15.40;51.40;;;;;;5069941;28;20195;-37
2022/08/01 06:44:11;;;;;;;1.95;1.50;;;15.40;51.50;;;;;;5070151;28;20221;-37
2022/08/01 06:46:42;;;;;;;1.73;1.50;;;15.40;51.60;;;;;;5070417;28;20191;-37
2022/08/01 06:49:15;;;;;;;1.40;1.30;;;15.40;51.70;;;;;;5070807;28;20293;-38
2022/08/01 06:51:45;;;;;;;1.65;1.30;;;15.30;51.70;;;;;;5070155;28;20619;-37
2022/08/01 06:54:16;;;;;;;1.25;1.15;;;15.30;52.10;;;;;;5069571;28;20215;-37
2022/08/01 06:56:47;;;;;;;1.20;1.10;;;15.30;52.50;;;;;;5070151;28;20198;-37
2022/08/01 06:59:17;;;;;;;1.30;1.20;;;15.30;52.80;;;;;;5071403;28;20195;-37
2022/08/01 07:01:48;;;;;;;1.20;1.10;;;15.40;52.80;;;;;;5073376;28;20647;-37
2022/08/01 07:04:21;;;;;;;1.52;1.42;;;15.40;53.40;;;;;;5073513;28;20219;-37
2022/08/01 07:06:51;;;;;;;1.38;1.20;;;15.30;52.70;;;;;;5073138;28;20191;-37
2022/08/01 07:09:22;;;;;;;1.48;1.20;;;15.30;52.80;;;;;;5085922;28;20190;-37
2022/08/01 07:11:53;;;;;;;1.30;1.20;;;15.30;52.80;;;;;;5094460;28;20229;-37
2022/08/01 07:14:24;;;;;;;1.30;1.17;;;15.30;52.90;;;;;;5094516;28;20222;-37
2022/08/01 07:16:54;;;;;;;1.70;1.00;;;15.30;53.00;;;;;;5093942;28;20191;-38
2022/08/01 07:19:27;;;;;;;1.42;1.10;;;15.20;53.00;;;;;;5094128;28;20201;-37
2022/08/01 07:21:58;;;;;;;1.95;1.23;;;15.20;53.00;;;;;;5080399;28;20210;-37
2022/08/01 07:24:28;;;;;;;1.67;1.20;;;15.20;53.00;;;;;;5073350;28;20712;-37
2022/08/01 07:26:59;;;;;;;1.23;1.00;;;15.20;53.10;;;;;;5073440;28;20203;-38
2022/08/01 07:29:30;;;;;;;0.82;0.80;;;15.20;53.10;;;;;;5073186;28;20209;-37
2022/08/01 07:32:01;;;;;;;1.40;1.20;;;15.20;53.10;;;;;;5072968;28;20230;-37
2022/08/01 07:34:34;;;;;;;1.48;1.20;;;15.20;53.20;;;;;;5073318;28;20222;-37
2022/08/01 07:37:04;;;;;;;2.63;1.15;;;15.20;53.30;;;;;;5073938;28;20565;-39
2022/08/01 07:39:35;;;;;;;2.05;1.08;;;15.10;53.30;;;;;;5073490;28;20191;-37
2022/08/01 07:42:06;;;;;;;1.38;1.10;;;15.10;53.40;;;;;;5073913;28;20556;-37
2022/08/01 07:44:36;;;;;;;1.23;1.13;;;15.10;53.60;;;;;;5073586;28;20215;-37
2022/08/01 07:47:07;;;;;;;1.30;1.17;;;15.10;53.70;;;;;;5073972;28;20206;-37
2022/08/01 07:49:40;;;;;;;1.90;1.10;;;15.10;53.70;;;;;;5073446;28;20205;-37
2022/08/01 07:52:11;;;;;;;1.92;1.10;;;15.00;53.70;;;;;;5073212;28;20226;-37
2022/08/01 07:54:41;;;;;;;1.40;1.20;;;15.10;53.80;;;;;;5072923;28;20699;-38
2022/08/01 07:57:12;;;;;;;1.13;1.02;;;15.00;53.70;;;;;;5073387;28;20206;-37
2022/08/01 07:59:43;;;;;;;1.30;0.80;;;15.00;53.80;;;;;;5073196;28;20669;-37
2022/08/01 08:02:13;;;;;;;0.90;0.80;;;15.00;53.80;;;;;;5073030;28;20194;-37
2022/08/01 08:04:46;;;;;;;2.15;0.95;;;15.00;53.80;;;;;;5073198;28;20221;-37
2022/08/01 08:07:17;;;;;;;1.08;0.98;;;15.00;53.90;;;;;;5073291;28;20199;-37
2022/08/01 08:09:47;;;;;;;1.10;0.93;;;15.00;53.90;;;;;;5072781;28;20209;-37
2022/08/01 08:12:18;;;;;;;1.42;0.98;;;14.90;53.90;;;;;;5072236;28;20226;-37
2022/08/01 08:14:49;;;;;;;1.25;0.93;;;14.90;54.60;;;;;;5072898;28;20211;-38
2022/08/01 08:17:19;;;;;;;1.00;0.90;;;14.90;54.10;;;;;;5072533;28;20282;-37
2022/08/01 08:19:52;;;;;;;1.10;0.93;;;14.90;54.10;;;;;;5072676;28;20202;-37
2022/08/01 08:22:23;;;;;;;0.73;0.73;;;14.90;54.20;;;;;;5072918;28;20256;-37
2022/08/01 08:24:54;;;;;;;1.27;1.00;;;14.80;54.10;;;;;;5072434;28;20222;-37
2022/08/01 08:27:24;;;;;;;1.15;0.80;;;14.80;54.20;;;;;;5072648;28;20241;-37
2022/08/01 08:29:55;;;;;;;1.60;0.80;;;14.80;54.20;;;;;;5072467;28;20195;-37
2022/08/01 08:32:26;;;;;;;2.25;0.90;;;14.80;54.30;;;;;;5071525;28;20230;-37
2022/08/01 08:34:58;;;;;;;1.05;0.95;;;14.80;54.30;;;;;;5071689;28;20219;-37
2022/08/01 08:37:29;;;;;;;1.20;0.88;;;14.80;54.40;;;;;;5072431;28;20206;-38
2022/08/01 08:40:00;;;;;;;1.30;0.80;;;14.80;54.40;;;;;;5072153;28;20195;-38
2022/08/01 08:42:30;;;;;;;0.88;0.80;;;14.80;54.40;;;;;;5072256;28;20561;-37
2022/08/01 08:45:01;;;;;;;1.13;0.80;;;14.80;54.40;;;;;;5072148;28;20221;-37
2022/08/01 08:47:33;;;;;;;1.02;0.80;;;14.70;54.40;;;;;;5071998;28;20198;-37
2022/08/01 08:50:07;;;;;;;0.98;0.80;;;14.70;54.50;;;;;;5071690;28;20195;-37
2022/08/01 08:52:40;;;;;;;0.77;0.77;;;14.70;54.50;;;;;;5071476;28;20633;-37
2022/08/01 08:55:14;;;;;;;1.88;0.90;;;14.70;54.60;;;;;;5071649;28;20219;-37
2022/08/01 08:57:47;;;;;;;1.55;0.90;;;14.70;54.60;;;;;;5071414;28;20222;-37
2022/08/01 09:00:19;;;;;;;1.13;0.98;;;14.70;54.60;;;;;;5071296;28;20195;-37
2022/08/01 09:02:52;;;;;;;1.10;0.98;;;14.60;54.60;;;;;;5071475;28;20210;-37
2022/08/01 09:05:27;;;;;;;1.73;1.02;;;14.60;54.60;;;;;;5071343;28;20429;-37
2022/08/01 09:07:57;;;;;;;0.60;0.60;;;14.70;54.70;;;;;;5071252;28;20336;-38
2022/08/01 09:10:28;;;;;;;1.00;0.80;;;14.60;54.70;;;;;;5066434;28;20654;-37
2022/08/01 09:13:11;;;;;;;1.95;1.00;;;14.60;55.20;;;;;;5071270;28;20223;-45
2022/08/01 09:15:46;;;;;;;1.70;1.10;;;14.70;56.50;;;;;;5060363;28;20237;-45
2022/08/01 09:18:34;;;;;;;1.27;0.75;;;14.70;56.90;;;;;;5051899;28;20195;-37
2022/08/01 09:21:21;;;;;;;1.08;0.80;;;14.80;57.20;;;;;;5084591;28;20198;-39
2022/08/01 09:23:53;;;;;;;1.30;0.90;;;14.80;57.00;;;;;;5069993;28;20246;-37
2022/08/01 09:26:31;;;;;;;0.90;0.75;;;14.80;56.80;;;;;;5071025;28;20207;-37
2022/08/01 09:29:04;;;;;;;1.35;0.90;;;14.70;56.70;;;;;;5070385;28;20252;-38
2022/08/01 09:31:43;;;;;;;1.40;0.90;;;14.80;56.60;;;;;;5070946;28;20211;-37
2022/08/01 09:34:14;;;;;;;1.88;1.00;;;14.70;56.50;;;;;;5070912;28;20206;-38
2022/08/01 09:36:55;;;;;;;1.70;1.00;;;14.70;56.40;;;;;;5070217;28;20610;-37
2022/08/01 09:39:27;;;;;;;0.93;0.85;;;14.70;56.40;;;;;;5071519;28;20233;-38
2022/08/01 09:42:00;;;;;;;1.05;0.80;;;14.70;56.30;;;;;;5070331;28;20675;-38
2022/08/01 09:44:43;;;;;;;1.20;1.00;;;14.70;56.30;;;;;;5071188;28;20211;-42
2022/08/01 09:47:16;;;;;;;1.40;0.80;;;14.70;56.30;;;;;;5050561;28;20199;-37
2022/08/01 09:49:48;;;;;;;2.58;1.02;;;14.70;56.20;;;;;;5061385;28;20190;-37
2022/08/01 09:52:22;;;;;;;1.55;0.80;;;14.60;56.20;;;;;;5069881;28;20685;-40
2022/08/01 09:54:57;;;;;;;1.95;0.77;;;14.60;56.20;;;;;;5069895;28;20221;-37
2022/08/01 09:57:28;;;;;;;0.82;0.80;;;14.60;56.20;;;;;;5070165;28;20209;-41
2022/08/01 10:00:00;;;;;;;0.80;0.70;;;14.60;56.20;;;;;;5069638;28;20218;-38
2022/08/01 10:02:35;;;;;;;1.92;0.80;;;14.60;56.20;;;;;;5070314;28;20195;-37
2022/08/01 10:05:07;;;;;;;1.17;0.93;;;14.60;56.20;;;;;;5079050;28;20810;-38
2022/08/01 10:07:57;;;;;;;0.60;0.60;;;14.60;56.20;;;;;;5091511;28;20194;-37
2022/08/01 10:10:28;;;;;;;1.05;0.73;;;14.60;56.20;;;;;;5090353;28;20196;-39
2022/08/01 10:12:59;;;;;;;0.82;0.70;;;14.60;56.10;;;;;;5090729;28;20560;-37
2022/08/01 10:15:32;;;;;;;0.65;0.60;;;14.60;56.10;;;;;;5086733;28;20693;-37
2022/08/01 10:18:06;;;;;;;0.95;0.75;;;14.60;56.10;;;;;;5069341;28;20198;-39
2022/08/01 10:20:37;;;;;;;0.88;0.70;;;14.50;56.10;;;;;;5069363;28;20194;-41
2022/08/01 10:23:10;;;;;;;1.67;0.70;;;14.50;56.10;;;;;;5070011;28;20199;-37
2022/08/01 10:25:45;;;;;;;0.63;0.50;;;14.50;56.10;;;;;;5070579;28;20205;-37
2022/08/01 10:28:19;;;;;;;1.08;0.80;;;14.50;56.10;;;;;;5070837;28;20198;-37
2022/08/01 10:30:50;;;;;;;1.50;0.73;;;14.50;56.10;;;;;;5069591;28;20217;-37
2022/08/01 10:33:23;;;;;;;0.50;0.50;;;14.40;56.00;;;;;;5070138;28;20218;-37
2022/08/01 10:35:54;;;;;;;0.50;0.50;;;14.40;56.10;;;;;;5074421;28;20191;-38
2022/08/01 10:38:27;;;;;;;0.80;0.70;;;14.40;56.00;;;;;;5053942;28;20196;-37
2022/08/01 10:40:59;;;;;;;1.00;0.70;;;14.40;56.10;;;;;;5071821;28;20191;-37
2022/08/01 10:43:30;;;;;;;0.65;0.55;;;14.40;56.00;;;;;;5073550;28;20191;-37
2022/08/01 10:46:01;;;;;;;1.08;0.65;;;14.40;56.00;;;;;;5073833;28;20190;-37
2022/08/01 10:48:42;;;;;;;0.88;0.68;;;14.40;56.00;;;;;;5073802;28;20198;-37
2022/08/01 10:51:15;;;;;;;0.63;0.60;;;14.40;56.00;;;;;;5073769;28;20228;-37
2022/08/01 10:53:54;;;;;;;0.75;0.65;;;14.40;56.00;;;;;;5073476;28;20234;-37
2022/08/01 10:56:25;;;;;;;0.90;0.70;;;14.40;56.00;;;;;;5053950;28;20191;-38
2022/08/01 10:59:05;;;;;;;0.82;0.60;;;14.40;56.10;;;;;;5053031;28;20655;-37
2022/08/01 11:01:36;;;;;;;0.98;0.60;;;14.40;56.70;;;;;;5073578;28;20201;-37
2022/08/01 11:04:10;;;;;;;0.88;0.70;;;14.40;56.10;;;;;;5067696;28;20215;-39
2022/08/01 11:06:56;;;;;;;1.52;0.70;;;14.30;56.10;;;;;;5093807;28;20196;-37
2022/08/01 11:09:40;;;;;;;0.85;0.63;;;14.30;56.10;;;;;;5094194;28;20197;-37
2022/08/01 11:12:13;;;;;;;0.73;0.60;;;14.30;56.10;;;;;;5094222;28;20224;-37
2022/08/01 11:15:29;;;;;;;0.88;0.60;;;14.40;56.30;;;;;;5094001;28;20214;-38
2022/08/01 11:18:03;;;;;;;0.80;0.65;;;14.40;56.80;;;;;;5093979;28;20234;-40
2022/08/01 11:20:35;;;;;;;1.60;0.60;;;14.50;56.70;;;;;;5081645;28;20570;-41
2022/08/01 11:23:31;;;;;;;1.05;0.77;;;14.50;56.70;;;;;;5066791;28;20199;-47
2022/08/01 11:26:16;;;;;;;0.88;0.60;;;14.40;56.70;;;;;;5072366;28;20207;-40
2022/08/01 11:28:49;;;;;;;0.50;0.50;;;14.50;56.60;;;;;;5073183;28;20195;-46
2022/08/01 11:31:34;;;;;;;0.60;0.60;;;14.40;56.60;;;;;;5091656;28;20190;-38
2022/08/01 11:34:05;;;;;;;1.23;0.70;;;14.40;56.50;;;;;;5093214;28;20228;-41
2022/08/01 11:36:35;;;;;;;0.75;0.73;;;14.40;56.50;;;;;;5053439;28;20202;-48
2022/08/01 11:39:19;;;;;;;1.30;0.70;;;14.40;56.40;;;;;;5052589;28;20196;-40
2022/08/01 11:41:54;;;;;;;0.70;0.50;;;14.40;56.50;;;;;;5053519;28;20218;-47
2022/08/01 11:44:33;;;;;;;1.33;0.70;;;14.40;56.40;;;;;;5054256;28;20242;-45
2022/08/01 11:47:07;;;;;;;0.40;0.40;;;14.40;56.40;;;;;;5073103;28;20237;-38
2022/08/01 11:49:49;;;;;;;0.70;0.63;;;14.40;56.40;;;;;;5073411;28;20199;-37
2022/08/01 11:52:22;;;;;;;0.65;0.60;;;14.40;56.30;;;;;;5072590;28;20218;-42
2022/08/01 11:54:55;;;;;;;0.50;0.40;;;14.40;56.20;;;;;;5072011;28;20214;-41
2022/08/01 11:57:30;;;;;;;0.60;0.55;;;14.40;56.20;;;;;;5071847;28;20643;-38
2022/08/01 12:00:02;;;;;;;2.15;0.85;;;14.40;56.20;;;;;;5071995;28;20198;-37
2022/08/01 12:02:35;;;;;;;0.77;0.60;;;14.40;56.30;;;;;;5071528;28;20198;-37
2022/08/01 12:05:08;;;;;;;0.73;0.50;;;14.40;56.30;;;;;;5071736;28;20229;-37
2022/08/01 12:07:40;;;;;;;1.00;0.50;;;14.40;56.20;;;;;;5071627;28;20195;-37
2022/08/01 12:10:13;;;;;;;0.50;0.50;;;14.40;56.30;;;;;;5071596;28;20813;-45
2022/08/01 12:12:50;;;;;;;0.50;0.50;;;14.40;56.30;;;;;;5071663;28;20576;-37
2022/08/01 12:15:22;;;;;;;0.50;0.50;;;14.40;56.30;;;;;;5071416;28;20222;-37
2022/08/01 12:17:57;;;;;;;1.00;0.52;;;14.40;56.30;;;;;;5071550;28;20206;-42
2022/08/01 12:20:31;;;;;;;0.80;0.70;;;14.40;56.20;;;;;;5071339;28;20198;-37
2022/08/01 12:23:05;;;;;;;0.63;0.57;;;14.40;56.20;;;;;;5070689;28;20198;-37
2022/08/01 12:25:36;;;;;;;0.68;0.68;;;14.40;56.80;;;;;;5070492;28;20230;-37
2022/08/01 12:28:10;;;;;;;0.40;0.40;;;14.40;56.10;;;;;;5070776;28;20569;-40
2022/08/01 12:30:41;;;;;;;0.40;0.40;;;14.40;56.10;;;;;;5071056;28;20217;-37
2022/08/01 12:33:19;;;;;;;0.98;0.50;;;14.40;56.10;;;;;;5071211;28;20565;-42
2022/08/01 12:35:50;;;;;;;0.43;0.40;;;14.40;56.20;;;;;;5071511;28;20195;-37
2022/08/01 12:38:22;;;;;;;0.50;0.50;;;14.40;56.20;;;;;;5070824;28;20229;-40
2022/08/01 12:40:52;;;;;;;0.80;0.60;;;14.30;56.10;;;;;;5070856;28;20206;-37
2022/08/01 12:43:26;;;;;;;0.52;0.50;;;14.30;56.10;;;;;;5071151;28;20282;-37
2022/08/01 12:45:58;;;;;;;0.68;0.45;;;14.30;56.20;;;;;;5070550;28;20227;-37
2022/08/01 12:48:29;;;;;;;0.80;0.50;;;14.30;56.20;;;;;;5071401;28;20199;-41
2022/08/01 12:51:02;;;;;;;0.40;0.40;;;14.30;56.20;;;;;;5070713;28;20260;-37
2022/08/01 12:53:37;;;;;;;0.55;0.40;;;14.30;56.20;;;;;;5070168;28;20697;-37
2022/08/01 12:56:08;;;;;;;0.50;0.50;;;14.40;56.30;;;;;;5070177;28;20205;-38
2022/08/01 12:58:41;;;;;;;0.60;0.60;;;14.40;56.30;;;;;;5070712;28;20191;-37
2022/08/01 13:01:13;;;;;;;0.43;0.40;;;14.40;56.20;;;;;;5070406;28;20198;-37
2022/08/01 13:04:03;;;;;;;0.40;0.40;;;14.40;56.20;;;;;;5069572;28;20697;-37
2022/08/01 13:06:35;;;;;;;0.90;0.43;;;14.30;56.10;;;;;;5070207;28;20606;-42
2022/08/01 13:09:10;;;;;;;0.40;0.40;;;14.30;56.10;;;;;;5070558;28;20218;-37
2022/08/01 13:11:41;;;;;;;0.80;0.45;;;14.30;56.20;;;;;;5070128;28;20194;-41
2022/08/01 13:14:28;;;;;;;0.60;0.60;;;14.30;56.10;;;;;;5069566;28;20227;-37
2022/08/01 13:16:59;;;;;;;0.95;0.52;;;14.30;56.20;;;;;;5069706;28;20202;-37
2022/08/01 13:19:47;;;;;;;0.60;0.55;;;14.30;56.10;;;;;;5069666;28;20190;-37